createdAt,value
2023-04-01T00:00:25.636Z,96901.19
2023-04-01T00:02:56.658Z,96887.59
2023-04-01T00:05:27.601Z,96891.84
2023-04-01T00:07:58.061Z,96893.47
2023-04-01T00:10:28.432Z,96900.66
2023-04-01T00:13:01.504Z,96895.31
2023-04-01T00:15:32.186Z,96892.03
2023-04-01T00:18:03.184Z,96885.97
2023-04-01T00:20:34.128Z,96896.88
2023-04-01T00:23:04.695Z,96903.94
2023-04-01T00:25:35.684Z,96897.88
2023-04-01T00:28:08.655Z,96894.59
2023-04-01T00:30:40.588Z,96891.22
2023-04-01T00:33:11.076Z,96884.13
2023-04-01T00:35:41.825Z,96889.03
2023-04-01T00:38:12.603Z,96894.41
2023-04-01T00:40:46.225Z,96890.91
2023-04-01T00:43:22.215Z,96899.56
2023-04-01T00:45:53.824Z,96902.72
2023-04-01T00:48:29.908Z,96892.56
2023-04-01T00:51:07.158Z,96904.19
2023-04-01T00:53:42.067Z,96904.91
2023-04-01T00:56:17.883Z,96905.84
2023-04-01T00:58:54.458Z,96907.38
2023-04-01T01:01:26.534Z,96895.94
2023-04-01T01:03:57.590Z,96891.94
2023-04-01T01:06:42.239Z,96907.47
2023-04-01T01:09:29.519Z,96898.31
2023-04-01T01:12:10.208Z,96906.78
2023-04-01T01:14:58.624Z,96899.97
2023-04-01T01:17:44.554Z,96905.28
2023-04-01T01:21:01.680Z,96891.28
2023-04-01T01:24:22.573Z,96902.41
2023-04-01T01:27:05.458Z,96891.47
2023-04-01T01:30:09.074Z,96895.41
2023-04-01T01:33:10.777Z,96890.16
2023-04-01T01:35:48.183Z,96892.03
2023-04-01T01:38:26.112Z,96896.44
2023-04-01T01:41:10.657Z,96899.00
2023-04-01T01:43:46.163Z,96895.41
2023-04-01T01:46:23.847Z,96896.63
2023-04-01T01:48:55.108Z,96898.06
2023-04-01T01:51:31.132Z,96897.56
2023-04-01T01:54:01.713Z,96908.97
2023-04-01T01:56:34.554Z,96904.31
2023-04-01T01:59:10.510Z,96901.03
2023-04-01T02:01:46.983Z,96898.00
2023-04-01T02:04:19.749Z,96883.78
2023-04-01T02:07:01.525Z,96890.69
2023-04-01T02:09:34.783Z,96885.03
2023-04-01T02:12:10.642Z,96901.38
2023-04-01T02:14:47.821Z,96898.78
2023-04-01T02:17:22.361Z,96900.44
2023-04-01T02:19:56.899Z,96895.28
2023-04-01T02:22:35.444Z,96907.22
2023-04-01T02:25:11.688Z,96916.78
2023-04-01T02:27:43.208Z,96915.84
2023-04-01T02:30:15.692Z,96897.13
2023-04-01T02:32:46.703Z,96893.84
2023-04-01T02:35:20.839Z,96898.97
2023-04-01T02:37:55.966Z,96888.91
2023-04-01T02:40:27.153Z,96895.50
2023-04-01T02:42:57.491Z,96902.25
2023-04-01T02:45:27.925Z,96900.81
2023-04-01T02:47:58.381Z,96897.34
2023-04-01T02:50:28.739Z,96892.91
2023-04-01T02:53:01.905Z,96894.84
2023-04-01T02:55:32.672Z,96896.53
2023-04-01T02:58:03.500Z,96901.03
2023-04-01T03:00:34.506Z,96896.59
2023-04-01T03:03:04.942Z,96888.06
2023-04-01T03:05:35.701Z,96887.88
2023-04-01T03:08:09.132Z,96892.59
2023-04-01T03:10:39.465Z,96903.59
2023-04-01T03:13:10.760Z,96914.75
2023-04-01T03:15:41.320Z,96901.03
2023-04-01T03:18:11.781Z,96893.59
2023-04-01T03:20:42.240Z,96901.22
2023-04-01T03:23:15.269Z,96899.00
2023-04-01T03:25:45.757Z,96902.22
2023-04-01T03:28:16.181Z,96910.03
2023-04-01T03:30:47.407Z,96902.31
2023-04-01T03:33:18.096Z,96905.06
2023-04-01T03:35:48.409Z,96909.28
2023-04-01T03:38:21.708Z,96905.25
2023-04-01T03:40:52.254Z,96909.47
2023-04-01T03:43:23.563Z,96907.94
2023-04-01T03:45:55.606Z,96895.19
2023-04-01T03:48:26.530Z,96896.09
2023-04-01T03:50:56.915Z,96901.97
2023-04-01T03:53:30.805Z,96890.88
2023-04-01T03:56:08.543Z,96900.31
2023-04-01T03:58:40.993Z,96884.91
2023-04-01T04:01:22.385Z,96881.63
2023-04-01T04:03:56.574Z,96890.25
2023-04-01T04:06:28.551Z,96886.75
2023-04-01T04:09:01.737Z,96876.50
2023-04-01T04:11:35.796Z,96870.72
2023-04-01T04:14:06.848Z,96874.63
2023-04-01T04:16:40.431Z,96900.53
2023-04-01T04:19:11.359Z,96874.00
2023-04-01T04:21:43.559Z,96874.84
2023-04-01T04:24:17.152Z,96873.00
2023-04-01T04:27:10.506Z,96873.75
2023-04-01T04:29:47.732Z,96877.31
2023-04-01T04:32:18.221Z,96876.69
2023-04-01T04:34:48.672Z,96870.81
2023-04-01T04:37:19.111Z,96874.59
2023-04-01T04:39:52.038Z,96868.44
2023-04-01T04:42:23.166Z,96879.72
2023-04-01T04:44:57.424Z,96874.75
2023-04-01T04:47:27.908Z,96882.56
2023-04-01T04:49:58.260Z,96874.34
2023-04-01T04:52:28.682Z,96865.06
2023-04-01T04:55:01.924Z,96879.66
2023-04-01T04:57:32.578Z,96863.81
2023-04-01T05:00:02.977Z,96876.75
2023-04-01T05:02:57.695Z,96866.47
2023-04-01T05:05:28.467Z,96867.47
2023-04-01T05:07:58.865Z,96863.34
2023-04-01T05:10:32.698Z,96859.88
2023-04-01T05:13:03.589Z,96867.47
2023-04-01T05:15:35.168Z,96871.69
2023-04-01T05:18:06.068Z,96874.53
2023-04-01T05:20:36.648Z,96871.59
2023-04-01T05:23:07.919Z,96864.44
2023-04-01T05:25:42.263Z,96857.47
2023-04-01T05:28:13.353Z,96862.63
2023-04-01T05:30:45.313Z,96854.69
2023-04-01T05:33:30.172Z,96855.91
2023-04-01T05:36:00.919Z,96871.03
2023-04-01T05:38:31.323Z,96857.38
2023-04-01T05:41:06.763Z,96864.72
2023-04-01T05:43:41.125Z,96862.84
2023-04-01T05:46:32.737Z,96860.75
2023-04-01T05:49:12.500Z,96847.91
2023-04-01T05:51:43.122Z,96857.34
2023-04-01T05:54:13.789Z,96836.41
2023-04-01T05:56:48.691Z,96838.06
2023-04-01T05:59:19.915Z,96837.97
2023-04-01T06:01:50.327Z,96834.09
2023-04-01T06:04:22.572Z,96845.91
2023-04-01T06:06:53.073Z,96845.72
2023-04-01T06:09:30.338Z,96837.94
2023-04-01T06:12:28.750Z,96834.97
2023-04-01T06:15:24.569Z,96826.88
2023-04-01T06:18:34.804Z,96832.41
2023-04-01T06:21:29.027Z,96845.00
2023-04-01T06:24:25.222Z,96836.53
2023-04-01T06:27:04.770Z,96844.38
2023-04-01T06:29:59.711Z,96839.34
2023-04-01T06:33:00.182Z,96841.31
2023-04-01T06:35:56.034Z,96851.09
2023-04-01T06:38:50.124Z,96838.75
2023-04-01T06:41:48.859Z,96841.13
2023-04-01T06:44:27.688Z,96846.91
2023-04-01T06:47:34.804Z,96871.06
2023-04-01T06:50:30.543Z,96850.28
2023-04-01T06:53:26.989Z,96848.47
2023-04-01T06:56:39.707Z,96830.47
2023-04-01T06:59:22.004Z,96845.66
2023-04-01T07:01:57.870Z,96847.94
2023-04-01T07:04:34.275Z,96846.00
2023-04-01T07:07:09.947Z,96840.00
2023-04-01T07:09:53.696Z,96834.25
2023-04-01T07:12:55.498Z,96851.84
2023-04-01T07:15:47.717Z,96857.50
2023-04-01T07:18:23.469Z,96820.78
2023-04-01T07:20:57.485Z,96846.72
2023-04-01T07:23:32.965Z,96858.63
2023-04-01T07:26:26.402Z,96844.03
2023-04-01T07:29:09.800Z,96860.31
2023-04-01T07:32:05.790Z,96874.69
2023-04-01T07:34:48.242Z,96850.72
2023-04-01T07:37:33.047Z,96855.66
2023-04-01T07:40:18.319Z,96864.31
2023-04-01T07:43:11.823Z,96865.22
2023-04-01T07:45:59.763Z,96861.75
2023-04-01T07:48:41.436Z,96870.34
2023-04-01T07:51:19.097Z,96870.16
2023-04-01T07:54:07.110Z,96892.22
2023-04-01T07:56:45.914Z,96857.13
2023-04-01T07:59:31.852Z,96869.59
2023-04-01T08:02:14.823Z,96863.31
2023-04-01T08:05:04.297Z,96863.22
2023-04-01T08:07:46.373Z,96900.03
2023-04-01T08:10:47.574Z,96863.00
2023-04-01T08:14:01.936Z,96867.97
2023-04-01T08:17:01.945Z,96897.78
2023-04-01T08:20:00.742Z,96863.19
2023-04-01T08:22:42.013Z,96895.50
2023-04-01T08:25:27.008Z,96874.09
2023-04-01T08:28:08.399Z,96876.59
2023-04-01T08:30:47.054Z,96873.28
2023-04-01T08:33:26.053Z,96902.94
2023-04-01T08:36:08.112Z,96885.03
2023-04-01T08:38:46.327Z,96890.91
2023-04-01T08:42:01.513Z,96886.88
2023-04-01T08:45:24.667Z,96884.84
2023-04-01T08:48:23.615Z,96901.47
2023-04-01T08:51:36.526Z,96897.16
2023-04-01T08:54:33.873Z,96883.13
2023-04-01T08:57:12.622Z,96885.66
2023-04-01T09:00:15.824Z,96897.31
2023-04-01T09:03:38.468Z,96880.63
2023-04-01T09:06:47.551Z,96878.25
2023-04-01T09:09:53.316Z,96878.44
2023-04-01T09:12:57.269Z,96877.13
2023-04-01T09:16:05.482Z,96876.75
2023-04-01T09:19:02.820Z,96883.53
2023-04-01T09:22:02.002Z,96871.19
2023-04-01T09:25:03.131Z,96885.59
2023-04-01T09:27:39.160Z,96882.59
2023-04-01T09:30:37.958Z,96914.66
2023-04-01T09:33:56.441Z,96899.63
2023-04-01T09:36:49.863Z,96896.66
2023-04-01T09:39:41.658Z,96900.53
2023-04-01T09:42:49.483Z,96915.47
2023-04-01T09:45:41.590Z,96889.84
2023-04-01T09:48:25.599Z,96897.19
2023-04-01T09:51:09.315Z,96890.97
2023-04-01T09:53:57.872Z,96904.03
2023-04-01T09:57:15.410Z,96900.88
2023-04-01T10:00:36.604Z,96905.28
2023-04-01T10:04:01.276Z,96914.47
2023-04-01T10:07:05.793Z,96911.88
2023-04-01T10:10:35.670Z,96920.63
2023-04-01T10:13:46.141Z,96938.66
2023-04-01T10:16:31.700Z,96915.28
2023-04-01T10:19:46.312Z,96909.00
2023-04-01T10:22:44.712Z,96921.56
2023-04-01T10:26:00.098Z,96941.84
2023-04-01T10:29:07.027Z,96908.25
2023-04-01T10:32:17.312Z,96913.81
2023-04-01T10:35:49.082Z,96911.97
2023-04-01T10:38:54.564Z,96894.88
2023-04-01T10:42:28.767Z,96910.94
2023-04-01T10:45:58.977Z,96916.69
2023-04-01T10:49:23.202Z,96922.47
2023-04-01T10:52:31.855Z,96912.06
2023-04-01T10:56:03.733Z,96921.97
2023-04-01T11:00:05.648Z,96933.56
2023-04-01T11:03:49.196Z,96902.47
2023-04-01T11:07:25.991Z,96904.94
2023-04-01T11:10:44.558Z,96938.81
2023-04-01T11:14:00.029Z,96924.09
2023-04-01T11:17:11.019Z,96915.72
2023-04-01T11:20:33.043Z,96889.44
2023-04-01T11:23:33.664Z,96913.34
2023-04-01T11:26:12.313Z,96893.06
2023-04-01T11:29:19.931Z,96931.59
2023-04-01T11:32:03.988Z,96915.13
2023-04-01T11:35:10.144Z,96913.63
2023-04-01T11:37:48.978Z,96926.59
2023-04-01T11:40:47.226Z,96906.28
2023-04-01T11:43:44.198Z,96914.03
2023-04-01T11:47:12.108Z,96943.75
2023-04-01T11:49:54.768Z,96921.75
2023-04-01T11:53:03.019Z,96944.88
2023-04-01T11:55:45.835Z,96959.16
2023-04-01T11:58:39.264Z,96939.94
2023-04-01T12:01:26.662Z,96960.09
2023-04-01T12:04:58.238Z,96935.88
2023-04-01T12:07:48.830Z,96916.28
2023-04-01T12:10:23.933Z,96941.25
2023-04-01T12:13:04.306Z,96929.09
2023-04-01T12:15:55.091Z,96937.97
2023-04-01T12:18:34.004Z,96945.50
2023-04-01T12:21:20.947Z,96934.47
2023-04-01T12:24:30.108Z,96987.66
2023-04-01T12:27:11.947Z,96957.16
2023-04-01T12:30:10.529Z,96944.97
2023-04-01T12:32:49.817Z,96953.66
2023-04-01T12:35:27.452Z,96944.97
2023-04-01T12:38:20.303Z,96958.47
2023-04-01T12:41:22.078Z,96943.81
2023-04-01T12:44:29.053Z,96969.41
2023-04-01T12:47:39.551Z,96941.91
2023-04-01T12:50:41.538Z,96965.72
2023-04-01T12:53:35.242Z,96949.22
2023-04-01T12:56:11.170Z,96952.50
2023-04-01T12:59:26.307Z,96945.16
2023-04-01T13:02:17.756Z,96958.44
2023-04-01T13:05:31.671Z,96967.09
2023-04-01T13:08:12.420Z,96971.22
2023-04-01T13:11:13.860Z,96948.13
2023-04-01T13:14:30.680Z,96963.88
2023-04-01T13:17:11.634Z,96964.84
2023-04-01T13:19:57.923Z,96966.94
2023-04-01T13:22:49.729Z,96978.91
2023-04-01T13:25:29.450Z,96971.72
2023-04-01T13:28:12.572Z,96976.31
2023-04-01T13:30:54.456Z,96979.16
2023-04-01T13:33:36.136Z,96995.16
2023-04-01T13:36:22.225Z,96976.59
2023-04-01T13:39:19.306Z,96976.81
2023-04-01T13:42:26.226Z,96980.94
2023-04-01T13:45:06.587Z,96983.78
2023-04-01T13:48:25.905Z,96982.53
2023-04-01T13:51:32.382Z,96979.31
2023-04-01T13:54:27.551Z,96983.78
2023-04-01T13:57:19.061Z,96995.50
2023-04-01T14:00:23.282Z,96998.31
2023-04-01T14:03:18.715Z,96994.22
2023-04-01T14:06:06.417Z,96994.22
2023-04-01T14:09:04.281Z,97018.22
2023-04-01T14:11:45.672Z,97008.97
2023-04-01T14:14:27.113Z,97010.19
2023-04-01T14:17:20.942Z,97010.38
2023-04-01T14:20:30.133Z,97040.44
2023-04-01T14:23:18.559Z,97010.66
2023-04-01T14:26:26.525Z,97009.28
2023-04-01T14:29:07.019Z,96997.13
2023-04-01T14:31:58.600Z,97055.75
2023-04-01T14:34:59.449Z,97037.63
2023-04-01T14:38:12.410Z,97025.94
2023-04-01T14:41:03.104Z,97024.19
2023-04-01T14:44:03.852Z,97032.97
2023-04-01T14:47:21.524Z,97028.63
2023-04-01T14:49:58.182Z,97040.25
2023-04-01T14:52:35.730Z,97028.09
2023-04-01T14:55:22.818Z,97039.03
2023-04-01T14:58:09.050Z,97033.44
2023-04-01T15:00:58.463Z,97030.75
2023-04-01T15:03:34.749Z,97025.16
2023-04-01T15:06:45.776Z,97027.38
2023-04-01T15:09:28.691Z,97039.00
2023-04-01T15:12:16.050Z,97030.59
2023-04-01T15:15:13.875Z,97042.13
2023-04-01T15:18:09.580Z,97037.72
2023-04-01T15:21:05.333Z,97051.31
2023-04-01T15:23:53.664Z,97043.81
2023-04-01T15:26:49.154Z,97045.94
2023-04-01T15:29:39.359Z,97039.34
2023-04-01T15:32:21.370Z,97045.00
2023-04-01T15:35:01.626Z,97047.69
2023-04-01T15:37:42.957Z,97062.22
2023-04-01T15:40:27.105Z,97054.63
2023-04-01T15:43:15.500Z,97066.69
2023-04-01T15:46:02.347Z,97069.59
2023-04-01T15:48:54.221Z,97068.88
2023-04-01T15:51:52.467Z,97066.50
2023-04-01T15:54:57.644Z,97079.38
2023-04-01T15:57:46.298Z,97075.91
2023-04-01T16:00:30.449Z,97092.19
2023-04-01T16:03:35.316Z,97076.94
2023-04-01T16:06:34.832Z,97104.56
2023-04-01T16:09:25.356Z,97077.75
2023-04-01T16:12:01.990Z,97089.19
2023-04-01T16:14:46.815Z,97090.13
2023-04-01T16:17:39.014Z,97097.63
2023-04-01T16:20:23.645Z,97079.81
2023-04-01T16:23:02.799Z,97085.47
2023-04-01T16:25:41.212Z,97091.56
2023-04-01T16:28:24.106Z,97099.41
2023-04-01T16:31:03.084Z,97091.03
2023-04-01T16:33:44.939Z,97089.91
2023-04-01T16:36:26.585Z,97103.94
2023-04-01T16:39:13.762Z,97101.88
2023-04-01T16:41:52.804Z,97097.97
2023-04-01T16:44:27.188Z,97107.03
2023-04-01T16:47:03.281Z,97106.75
2023-04-01T16:49:40.923Z,97096.31
2023-04-01T16:52:20.747Z,97107.88
2023-04-01T16:55:01.038Z,97114.25
2023-04-01T16:57:39.347Z,97115.28
2023-04-01T17:00:26.815Z,97115.91
2023-04-01T17:03:13.132Z,97117.03
2023-04-01T17:05:59.245Z,97113.66
2023-04-01T17:09:03.186Z,97111.38
2023-04-01T17:11:42.233Z,97113.44
2023-04-01T17:14:25.190Z,97108.41
2023-04-01T17:17:41.395Z,97108.28
2023-04-01T17:20:42.422Z,97108.72
2023-04-01T17:23:25.153Z,97119.84
2023-04-01T17:26:31.466Z,97118.19
2023-04-01T17:29:09.756Z,97120.03
2023-04-01T17:31:56.467Z,97120.03
2023-04-01T17:34:56.819Z,97123.44
2023-04-01T17:37:49.239Z,97129.22
2023-04-01T17:40:39.682Z,97135.09
2023-04-01T17:43:22.709Z,97137.75
2023-04-01T17:45:59.695Z,97145.09
2023-04-01T17:48:46.468Z,97143.13
2023-04-01T17:51:28.700Z,97166.44
2023-04-01T17:54:15.891Z,97163.16
2023-04-01T17:57:01.036Z,97160.25
2023-04-01T17:59:40.422Z,97166.63
2023-04-01T18:02:28.732Z,97168.31
2023-04-01T18:05:38.422Z,97177.56
2023-04-01T18:08:20.209Z,97184.69
2023-04-01T18:11:06.893Z,97179.53
2023-04-01T18:14:11.823Z,97188.50
2023-04-01T18:17:03.494Z,97189.28
2023-04-01T18:19:44.690Z,97194.66
2023-04-01T18:22:24.327Z,97191.94
2023-04-01T18:25:05.185Z,97193.91
2023-04-01T18:27:44.180Z,97204.19
2023-04-01T18:30:20.408Z,97207.59
2023-04-01T18:32:56.541Z,97201.69
2023-04-01T18:35:38.955Z,97208.78
2023-04-01T18:38:16.698Z,97205.50
2023-04-01T18:40:52.646Z,97209.84
2023-04-01T18:43:39.103Z,97214.81
2023-04-01T18:46:16.714Z,97221.78
2023-04-01T18:48:58.926Z,97223.91
2023-04-01T18:51:42.554Z,97214.66
2023-04-01T18:54:20.985Z,97221.16
2023-04-01T18:56:51.477Z,97227.53
2023-04-01T18:59:31.531Z,97237.28
2023-04-01T19:02:11.628Z,97233.44
2023-04-01T19:04:47.876Z,97242.81
2023-04-01T19:07:48.534Z,97253.59
2023-04-01T19:10:27.287Z,97244.31
2023-04-01T19:13:23.435Z,97248.78
2023-04-01T19:16:06.840Z,97251.34
2023-04-01T19:19:15.806Z,97250.59
2023-04-01T19:21:51.035Z,97251.16
2023-04-01T19:24:53.007Z,97254.28
2023-04-01T19:27:35.027Z,97251.34
2023-04-01T19:30:40.537Z,97239.78
2023-04-01T19:33:32.797Z,97248.59
2023-04-01T19:36:15.949Z,97238.53
2023-04-01T19:38:57.109Z,97241.09
2023-04-01T19:41:43.461Z,97241.16
2023-04-01T19:44:34.344Z,97240.50
2023-04-01T19:47:15.660Z,97248.22
2023-04-01T19:50:04.905Z,97254.63
2023-04-01T19:52:38.506Z,97250.41
2023-04-01T19:55:25.600Z,97252.28
2023-04-01T19:58:06.516Z,97256.13
2023-04-01T20:00:42.174Z,97279.06
2023-04-01T20:03:29.996Z,97266.13
2023-04-01T20:06:14.310Z,97273.09
2023-04-01T20:08:53.301Z,97268.78
2023-04-01T20:11:41.592Z,97273.91
2023-04-01T20:14:21.859Z,97282.47
2023-04-01T20:17:06.598Z,97282.47
2023-04-01T20:19:43.863Z,97276.50
2023-04-01T20:22:35.996Z,97277.13
2023-04-01T20:25:16.990Z,97282.28
2023-04-01T20:27:54.330Z,97280.72
2023-04-01T20:30:54.400Z,97297.63
2023-04-01T20:34:07.574Z,97290.19
2023-04-01T20:36:52.178Z,97290.09
2023-04-01T20:40:12.835Z,97311.41
2023-04-01T20:43:18.568Z,97305.63
2023-04-01T20:45:58.964Z,97305.53
2023-04-01T20:49:23.150Z,97304.25
2023-04-01T20:52:03.915Z,97307.66
2023-04-01T20:54:55.276Z,97297.53
2023-04-01T20:57:31.892Z,97309.56
2023-04-01T21:00:33.351Z,97300.38
2023-04-01T21:03:23.717Z,97314.88
2023-04-01T21:06:22.280Z,97308.91
2023-04-01T21:09:06.812Z,97309.84
2023-04-01T21:11:53.220Z,97311.59
2023-04-01T21:15:00.215Z,97315.91
2023-04-01T21:17:46.306Z,97320.19
2023-04-01T21:20:45.280Z,97317.63
2023-04-01T21:23:44.282Z,97320.03
2023-04-01T21:26:29.458Z,97328.66
2023-04-01T21:29:23.099Z,97324.63
2023-04-01T21:32:05.198Z,97332.50
2023-04-01T21:34:46.476Z,97332.50
2023-04-01T21:37:48.139Z,97341.53
2023-04-01T21:40:52.540Z,97342.44
2023-04-01T21:43:44.305Z,97348.59
2023-04-01T21:47:07.665Z,97360.81
2023-04-01T21:50:05.498Z,97350.16
2023-04-01T21:53:09.654Z,97350.22
2023-04-01T21:56:29.105Z,97360.63
2023-04-01T21:59:55.368Z,97363.91
2023-04-01T22:03:15.996Z,97376.03
2023-04-01T22:06:05.131Z,97368.34
2023-04-01T22:09:09.737Z,97367.56
2023-04-01T22:11:55.570Z,97372.81
2023-04-01T22:14:32.977Z,97374.75
2023-04-01T22:17:09.512Z,97370.53
2023-04-01T22:19:52.002Z,97372.34
2023-04-01T22:22:27.508Z,97384.03
2023-04-01T22:25:08.935Z,97379.06
2023-04-01T22:27:46.144Z,97373.44
2023-04-01T22:30:24.579Z,97377.84
2023-04-01T22:33:02.970Z,97381.13
2023-04-01T22:35:46.770Z,97391.34
2023-04-01T22:38:35.089Z,97378.75
2023-04-01T22:41:16.433Z,97384.81
2023-04-01T22:43:48.818Z,97383.06
2023-04-01T22:46:50.204Z,97377.91
2023-04-01T22:49:29.083Z,97382.31
2023-04-01T22:52:09.654Z,97393.28
2023-04-01T22:54:46.027Z,97395.91
2023-04-01T22:57:35.993Z,97398.75
2023-04-01T23:00:16.376Z,97397.91
2023-04-01T23:03:03.367Z,97407.22
2023-04-01T23:05:35.980Z,97394.53
2023-04-01T23:08:50.940Z,97412.16
2023-04-01T23:11:26.810Z,97409.59
2023-04-01T23:14:09.171Z,97412.16
2023-04-01T23:16:45.334Z,97403.72
2023-04-01T23:19:24.090Z,97410.50
2023-04-01T23:22:02.867Z,97413.84
2023-04-01T23:24:41.903Z,97410.50
2023-04-01T23:27:19.342Z,97418.97
2023-04-01T23:29:50.223Z,97421.44
2023-04-01T23:32:22.982Z,97427.56
2023-04-01T23:34:56.095Z,97422.53
2023-04-01T23:37:27.669Z,97427.78
2023-04-01T23:40:02.273Z,97444.09
2023-04-01T23:42:35.282Z,97438.22
2023-04-01T23:45:09.865Z,97435.56
2023-04-01T23:47:44.224Z,97440.22
2023-04-01T23:50:19.017Z,97442.53
2023-04-01T23:52:53.317Z,97445.09
2023-04-01T23:55:30.777Z,97447.19
2023-04-01T23:58:18.902Z,97449.84
